sensor_id;sensor_type;location;lat;lon;timestamp;temperature;humidity
12926;DHT22;6529;50.566;9.774;2022-11-25T00:00:53;3.90;99.90
12926;DHT22;6529;50.566;9.774;2022-11-25T00:03:19;3.90;99.90
12926;DHT22;6529;50.566;9.774;2022-11-25T00:05:44;3.90;99.90
12926;DHT22;6529;50.566;9.774;2022-11-25T00:08:10;3.90;99.90
12926;DHT22;6529;50.566;9.774;2022-11-25T00:10:36;3.90;99.90
12926;DHT22;6529;50.566;9.774;2022-11-25T00:13:01;3.90;99.90
12926;DHT22;6529;50.566;9.774;2022-11-25T00:15:28;3.90;99.90
12926;DHT22;6529;50.566;9.774;2022-11-25T00:17:53;4.00;99.90
12926;DHT22;6529;50.566;9.774;2022-11-25T00:20:19;4.10;99.90
12926;DHT22;6529;50.566;9.774;2022-11-25T00:22:45;4.00;99.90
12926;DHT22;6529;50.566;9.774;2022-11-25T00:25:11;4.00;99.90
12926;DHT22;6529;50.566;9.774;2022-11-25T00:27:36;4.00;99.90
12926;DHT22;6529;50.566;9.774;2022-11-25T00:30:03;4.00;99.90
12926;DHT22;6529;50.566;9.774;2022-11-25T00:32:28;4.00;99.90
12926;DHT22;6529;50.566;9.774;2022-11-25T00:34:54;4.00;99.90
12926;DHT22;6529;50.566;9.774;2022-11-25T00:37:19;3.90;99.90
12926;DHT22;6529;50.566;9.774;2022-11-25T00:39:45;3.80;99.90
12926;DHT22;6529;50.566;9.774;2022-11-25T00:42:10;3.70;99.90
12926;DHT22;6529;50.566;9.774;2022-11-25T00:44:55;3.70;99.90
12926;DHT22;6529;50.566;9.774;2022-11-25T00:47:20;3.70;99.90
12926;DHT22;6529;50.566;9.774;2022-11-25T00:49:51;3.70;99.90
12926;DHT22;6529;50.566;9.774;2022-11-25T00:52:26;3.70;99.90
12926;DHT22;6529;50.566;9.774;2022-11-25T00:54:52;3.70;99.90
12926;DHT22;6529;50.566;9.774;2022-11-25T00:57:20;3.80;99.90
12926;DHT22;6529;50.566;9.774;2022-11-25T00:59:49;3.80;99.90
12926;DHT22;6529;50.566;9.774;2022-11-25T01:02:16;3.90;99.90
12926;DHT22;6529;50.566;9.774;2022-11-25T01:04:42;3.80;99.90
12926;DHT22;6529;50.566;9.774;2022-11-25T01:07:07;3.80;99.90
12926;DHT22;6529;50.566;9.774;2022-11-25T01:09:33;3.80;99.90
12926;DHT22;6529;50.566;9.774;2022-11-25T01:11:59;3.80;99.90
12926;DHT22;6529;50.566;9.774;2022-11-25T01:14:25;3.90;99.90
12926;DHT22;6529;50.566;9.774;2022-11-25T01:16:50;3.90;99.90
12926;DHT22;6529;50.566;9.774;2022-11-25T01:19:17;3.90;99.90
12926;DHT22;6529;50.566;9.774;2022-11-25T01:21:43;4.00;99.90
12926;DHT22;6529;50.566;9.774;2022-11-25T01:24:09;4.00;99.90
12926;DHT22;6529;50.566;9.774;2022-11-25T01:26:36;4.10;99.90
12926;DHT22;6529;50.566;9.774;2022-11-25T01:29:04;4.10;99.90
12926;DHT22;6529;50.566;9.774;2022-11-25T01:31:32;4.10;99.90
12926;DHT22;6529;50.566;9.774;2022-11-25T01:34:02;4.10;99.90
12926;DHT22;6529;50.566;9.774;2022-11-25T01:36:28;4.10;99.90
12926;DHT22;6529;50.566;9.774;2022-11-25T01:38:56;4.00;99.90
12926;DHT22;6529;50.566;9.774;2022-11-25T01:41:24;4.00;99.90
12926;DHT22;6529;50.566;9.774;2022-11-25T01:46:39;3.80;99.90
12926;DHT22;6529;50.566;9.774;2022-11-25T01:49:07;3.60;99.90
12926;DHT22;6529;50.566;9.774;2022-11-25T01:51:40;3.60;99.90
12926;DHT22;6529;50.566;9.774;2022-11-25T01:54:10;3.50;99.90
12926;DHT22;6529;50.566;9.774;2022-11-25T01:56:47;3.50;99.90
12926;DHT22;6529;50.566;9.774;2022-11-25T01:59:14;3.40;99.90
12926;DHT22;6529;50.566;9.774;2022-11-25T02:01:40;3.20;99.90
12926;DHT22;6529;50.566;9.774;2022-11-25T02:04:06;3.20;99.90
12926;DHT22;6529;50.566;9.774;2022-11-25T02:07:02;3.10;99.90
12926;DHT22;6529;50.566;9.774;2022-11-25T02:09:28;3.10;99.90
12926;DHT22;6529;50.566;9.774;2022-11-25T02:11:55;3.10;99.90
12926;DHT22;6529;50.566;9.774;2022-11-25T02:14:22;3.20;99.90
12926;DHT22;6529;50.566;9.774;2022-11-25T02:16:49;3.20;99.90
12926;DHT22;6529;50.566;9.774;2022-11-25T02:19:42;3.20;99.90
12926;DHT22;6529;50.566;9.774;2022-11-25T02:22:14;3.30;99.90
12926;DHT22;6529;50.566;9.774;2022-11-25T02:24:45;3.40;99.90
12926;DHT22;6529;50.566;9.774;2022-11-25T02:27:11;3.40;99.90
12926;DHT22;6529;50.566;9.774;2022-11-25T02:29:37;3.40;99.90
12926;DHT22;6529;50.566;9.774;2022-11-25T02:32:04;3.50;99.90
12926;DHT22;6529;50.566;9.774;2022-11-25T02:34:30;3.50;99.90
12926;DHT22;6529;50.566;9.774;2022-11-25T02:36:55;3.50;99.90
12926;DHT22;6529;50.566;9.774;2022-11-25T02:39:21;3.60;99.90
12926;DHT22;6529;50.566;9.774;2022-11-25T02:41:50;3.60;99.90
12926;DHT22;6529;50.566;9.774;2022-11-25T02:44:17;3.70;99.90
12926;DHT22;6529;50.566;9.774;2022-11-25T02:46:43;3.70;99.90
12926;DHT22;6529;50.566;9.774;2022-11-25T02:49:08;3.70;99.90
12926;DHT22;6529;50.566;9.774;2022-11-25T02:51:34;3.70;99.90
12926;DHT22;6529;50.566;9.774;2022-11-25T02:54:00;3.70;99.90
12926;DHT22;6529;50.566;9.774;2022-11-25T02:56:31;3.60;99.90
12926;DHT22;6529;50.566;9.774;2022-11-25T02:58:57;3.60;99.90
12926;DHT22;6529;50.566;9.774;2022-11-25T03:01:23;3.60;99.90
12926;DHT22;6529;50.566;9.774;2022-11-25T03:03:49;3.60;99.90
12926;DHT22;6529;50.566;9.774;2022-11-25T03:06:14;3.60;99.90
12926;DHT22;6529;50.566;9.774;2022-11-25T03:08:40;3.60;99.90
12926;DHT22;6529;50.566;9.774;2022-11-25T03:11:06;3.50;99.90
12926;DHT22;6529;50.566;9.774;2022-11-25T03:13:31;3.50;99.90
12926;DHT22;6529;50.566;9.774;2022-11-25T03:15:57;3.40;99.90
12926;DHT22;6529;50.566;9.774;2022-11-25T03:18:23;3.30;99.90
12926;DHT22;6529;50.566;9.774;2022-11-25T03:20:53;3.20;99.90
12926;DHT22;6529;50.566;9.774;2022-11-25T03:23:19;3.30;99.90
12926;DHT22;6529;50.566;9.774;2022-11-25T03:25:45;3.30;99.90
12926;DHT22;6529;50.566;9.774;2022-11-25T03:28:11;3.40;99.90
12926;DHT22;6529;50.566;9.774;2022-11-25T03:30:36;3.50;99.90
12926;DHT22;6529;50.566;9.774;2022-11-25T03:33:02;3.50;99.90
12926;DHT22;6529;50.566;9.774;2022-11-25T03:35:27;3.60;99.90
12926;DHT22;6529;50.566;9.774;2022-11-25T03:37:54;3.80;99.90
12926;DHT22;6529;50.566;9.774;2022-11-25T03:40:19;4.00;99.90
12926;DHT22;6529;50.566;9.774;2022-11-25T03:42:45;4.10;99.90
12926;DHT22;6529;50.566;9.774;2022-11-25T03:45:13;4.10;99.90
12926;DHT22;6529;50.566;9.774;2022-11-25T03:47:39;4.10;99.90
12926;DHT22;6529;50.566;9.774;2022-11-25T03:50:06;4.10;99.90
12926;DHT22;6529;50.566;9.774;2022-11-25T03:52:32;4.20;99.90
12926;DHT22;6529;50.566;9.774;2022-11-25T03:54:57;4.20;99.90
12926;DHT22;6529;50.566;9.774;2022-11-25T03:57:23;4.20;99.90
12926;DHT22;6529;50.566;9.774;2022-11-25T03:59:48;4.20;99.90
12926;DHT22;6529;50.566;9.774;2022-11-25T04:02:14;4.20;99.90
12926;DHT22;6529;50.566;9.774;2022-11-25T04:04:40;4.20;99.90
12926;DHT22;6529;50.566;9.774;2022-11-25T04:07:06;4.20;99.90
12926;DHT22;6529;50.566;9.774;2022-11-25T04:09:31;4.30;99.90
12926;DHT22;6529;50.566;9.774;2022-11-25T04:11:57;4.40;99.90
12926;DHT22;6529;50.566;9.774;2022-11-25T04:14:41;4.40;99.90
12926;DHT22;6529;50.566;9.774;2022-11-25T04:17:06;4.40;99.90
12926;DHT22;6529;50.566;9.774;2022-11-25T04:19:32;4.40;99.90
12926;DHT22;6529;50.566;9.774;2022-11-25T04:21:58;4.40;99.90
12926;DHT22;6529;50.566;9.774;2022-11-25T04:24:27;4.40;99.90
12926;DHT22;6529;50.566;9.774;2022-11-25T04:26:53;4.50;99.90
12926;DHT22;6529;50.566;9.774;2022-11-25T04:29:19;4.50;99.90
12926;DHT22;6529;50.566;9.774;2022-11-25T04:31:44;4.60;99.90
12926;DHT22;6529;50.566;9.774;2022-11-25T04:34:10;4.70;99.90
12926;DHT22;6529;50.566;9.774;2022-11-25T04:36:36;4.60;99.90
12926;DHT22;6529;50.566;9.774;2022-11-25T04:39:01;4.60;99.90
12926;DHT22;6529;50.566;9.774;2022-11-25T04:41:27;4.50;99.90
12926;DHT22;6529;50.566;9.774;2022-11-25T04:43:52;4.50;99.90
12926;DHT22;6529;50.566;9.774;2022-11-25T04:46:21;4.40;99.90
12926;DHT22;6529;50.566;9.774;2022-11-25T04:48:47;4.40;99.90
12926;DHT22;6529;50.566;9.774;2022-11-25T04:51:13;4.50;99.90
12926;DHT22;6529;50.566;9.774;2022-11-25T04:53:39;4.60;99.90
12926;DHT22;6529;50.566;9.774;2022-11-25T04:56:04;4.70;99.90
12926;DHT22;6529;50.566;9.774;2022-11-25T04:58:30;4.80;99.90
12926;DHT22;6529;50.566;9.774;2022-11-25T05:01:15;4.80;99.90
12926;DHT22;6529;50.566;9.774;2022-11-25T05:03:40;4.80;99.90
12926;DHT22;6529;50.566;9.774;2022-11-25T05:06:09;4.70;99.90
12926;DHT22;6529;50.566;9.774;2022-11-25T05:08:35;5.00;99.90
12926;DHT22;6529;50.566;9.774;2022-11-25T05:11:00;5.20;99.90
12926;DHT22;6529;50.566;9.774;2022-11-25T05:13:26;5.30;99.90
12926;DHT22;6529;50.566;9.774;2022-11-25T05:15:52;5.30;99.90
12926;DHT22;6529;50.566;9.774;2022-11-25T05:18:17;5.30;99.90
12926;DHT22;6529;50.566;9.774;2022-11-25T05:20:43;5.20;99.90
12926;DHT22;6529;50.566;9.774;2022-11-25T05:23:09;5.10;99.90
12926;DHT22;6529;50.566;9.774;2022-11-25T05:25:34;5.10;99.90
12926;DHT22;6529;50.566;9.774;2022-11-25T05:28:01;5.00;99.90
12926;DHT22;6529;50.566;9.774;2022-11-25T05:30:26;4.90;99.90
12926;DHT22;6529;50.566;9.774;2022-11-25T05:32:52;4.90;99.90
12926;DHT22;6529;50.566;9.774;2022-11-25T05:35:17;4.90;99.90
12926;DHT22;6529;50.566;9.774;2022-11-25T05:37:44;4.80;99.90
12926;DHT22;6529;50.566;9.774;2022-11-25T05:40:10;4.70;99.90
12926;DHT22;6529;50.566;9.774;2022-11-25T05:42:35;4.80;99.90
12926;DHT22;6529;50.566;9.774;2022-11-25T05:45:01;4.80;99.90
12926;DHT22;6529;50.566;9.774;2022-11-25T05:47:27;4.80;99.90
12926;DHT22;6529;50.566;9.774;2022-11-25T05:49:52;4.90;99.90
12926;DHT22;6529;50.566;9.774;2022-11-25T05:52:18;4.90;99.90
12926;DHT22;6529;50.566;9.774;2022-11-25T05:54:43;4.90;99.90
12926;DHT22;6529;50.566;9.774;2022-11-25T05:57:09;4.80;99.90
12926;DHT22;6529;50.566;9.774;2022-11-25T05:59:34;4.90;99.90
12926;DHT22;6529;50.566;9.774;2022-11-25T06:02:00;4.90;99.90
12926;DHT22;6529;50.566;9.774;2022-11-25T06:04:26;4.90;99.90
12926;DHT22;6529;50.566;9.774;2022-11-25T06:06:51;4.90;99.90
12926;DHT22;6529;50.566;9.774;2022-11-25T06:09:17;4.90;99.90
12926;DHT22;6529;50.566;9.774;2022-11-25T06:11:43;4.80;99.90
12926;DHT22;6529;50.566;9.774;2022-11-25T06:14:08;4.80;99.90
12926;DHT22;6529;50.566;9.774;2022-11-25T06:16:34;4.70;99.90
12926;DHT22;6529;50.566;9.774;2022-11-25T06:19:01;4.60;99.90
12926;DHT22;6529;50.566;9.774;2022-11-25T06:21:30;4.60;99.90
12926;DHT22;6529;50.566;9.774;2022-11-25T06:23:55;4.60;99.90
12926;DHT22;6529;50.566;9.774;2022-11-25T06:26:21;4.60;99.90
12926;DHT22;6529;50.566;9.774;2022-11-25T06:28:47;4.70;99.90
12926;DHT22;6529;50.566;9.774;2022-11-25T06:31:17;4.70;99.90
12926;DHT22;6529;50.566;9.774;2022-11-25T06:33:49;4.80;99.90
12926;DHT22;6529;50.566;9.774;2022-11-25T06:36:15;4.80;99.90
12926;DHT22;6529;50.566;9.774;2022-11-25T06:38:49;4.70;99.90
12926;DHT22;6529;50.566;9.774;2022-11-25T06:41:15;4.80;99.90
12926;DHT22;6529;50.566;9.774;2022-11-25T06:43:41;4.90;99.90
12926;DHT22;6529;50.566;9.774;2022-11-25T06:46:08;5.00;99.90
12926;DHT22;6529;50.566;9.774;2022-11-25T06:48:35;5.10;99.90
12926;DHT22;6529;50.566;9.774;2022-11-25T06:51:05;5.40;99.90
12926;DHT22;6529;50.566;9.774;2022-11-25T06:53:31;5.50;99.90
12926;DHT22;6529;50.566;9.774;2022-11-25T06:56:26;5.40;99.90
12926;DHT22;6529;50.566;9.774;2022-11-25T06:58:53;5.50;99.90
12926;DHT22;6529;50.566;9.774;2022-11-25T07:01:21;5.60;99.90
12926;DHT22;6529;50.566;9.774;2022-11-25T07:03:50;5.60;99.90
12926;DHT22;6529;50.566;9.774;2022-11-25T07:06:17;5.60;99.90
12926;DHT22;6529;50.566;9.774;2022-11-25T07:08:44;5.60;99.90
12926;DHT22;6529;50.566;9.774;2022-11-25T07:11:16;5.70;99.90
12926;DHT22;6529;50.566;9.774;2022-11-25T07:13:42;5.60;99.90
12926;DHT22;6529;50.566;9.774;2022-11-25T07:16:10;5.70;99.90
12926;DHT22;6529;50.566;9.774;2022-11-25T07:18:37;5.70;99.90
12926;DHT22;6529;50.566;9.774;2022-11-25T07:21:08;5.70;99.90
12926;DHT22;6529;50.566;9.774;2022-11-25T07:23:35;5.70;99.90
12926;DHT22;6529;50.566;9.774;2022-11-25T07:28:32;5.90;99.90
12926;DHT22;6529;50.566;9.774;2022-11-25T07:31:10;5.90;99.90
12926;DHT22;6529;50.566;9.774;2022-11-25T07:33:37;5.80;99.90
12926;DHT22;6529;50.566;9.774;2022-11-25T07:36:05;5.80;99.90
12926;DHT22;6529;50.566;9.774;2022-11-25T07:38:32;5.80;99.90
12926;DHT22;6529;50.566;9.774;2022-11-25T07:43:37;6.00;99.90
12926;DHT22;6529;50.566;9.774;2022-11-25T07:46:13;6.00;99.90
12926;DHT22;6529;50.566;9.774;2022-11-25T07:48:40;6.00;99.90
12926;DHT22;6529;50.566;9.774;2022-11-25T07:51:20;6.10;99.90
12926;DHT22;6529;50.566;9.774;2022-11-25T07:53:47;6.20;99.90
12926;DHT22;6529;50.566;9.774;2022-11-25T07:56:13;6.30;99.90
12926;DHT22;6529;50.566;9.774;2022-11-25T07:58:40;6.30;99.90
12926;DHT22;6529;50.566;9.774;2022-11-25T08:01:07;6.30;99.90
12926;DHT22;6529;50.566;9.774;2022-11-25T08:03:34;6.30;99.90
12926;DHT22;6529;50.566;9.774;2022-11-25T08:06:01;6.20;99.90
12926;DHT22;6529;50.566;9.774;2022-11-25T08:08:27;6.20;99.90
12926;DHT22;6529;50.566;9.774;2022-11-25T08:10:52;6.20;99.90
12926;DHT22;6529;50.566;9.774;2022-11-25T08:13:18;6.10;99.90
12926;DHT22;6529;50.566;9.774;2022-11-25T08:15:44;6.20;99.90
12926;DHT22;6529;50.566;9.774;2022-11-25T08:18:09;6.20;99.90
12926;DHT22;6529;50.566;9.774;2022-11-25T08:20:35;6.20;99.90
12926;DHT22;6529;50.566;9.774;2022-11-25T08:23:01;6.20;99.90
12926;DHT22;6529;50.566;9.774;2022-11-25T08:25:27;6.40;99.90
12926;DHT22;6529;50.566;9.774;2022-11-25T08:27:54;6.60;99.90
12926;DHT22;6529;50.566;9.774;2022-11-25T08:30:20;6.80;99.90
12926;DHT22;6529;50.566;9.774;2022-11-25T08:32:48;6.90;99.90
12926;DHT22;6529;50.566;9.774;2022-11-25T08:35:14;7.00;99.90
12926;DHT22;6529;50.566;9.774;2022-11-25T08:37:40;7.10;99.90
12926;DHT22;6529;50.566;9.774;2022-11-25T08:40:06;7.10;99.90
12926;DHT22;6529;50.566;9.774;2022-11-25T08:42:31;7.20;99.90
12926;DHT22;6529;50.566;9.774;2022-11-25T08:44:58;7.30;99.90
12926;DHT22;6529;50.566;9.774;2022-11-25T08:47:24;7.30;99.90
12926;DHT22;6529;50.566;9.774;2022-11-25T08:49:51;7.40;99.90
12926;DHT22;6529;50.566;9.774;2022-11-25T08:52:18;7.40;99.90
12926;DHT22;6529;50.566;9.774;2022-11-25T08:54:44;7.40;99.90
12926;DHT22;6529;50.566;9.774;2022-11-25T08:57:09;7.50;99.90
12926;DHT22;6529;50.566;9.774;2022-11-25T08:59:35;7.70;99.90
12926;DHT22;6529;50.566;9.774;2022-11-25T09:02:00;7.80;99.90
12926;DHT22;6529;50.566;9.774;2022-11-25T09:04:26;7.90;99.90
12926;DHT22;6529;50.566;9.774;2022-11-25T09:06:52;7.80;99.90
12926;DHT22;6529;50.566;9.774;2022-11-25T09:09:17;7.70;99.90
12926;DHT22;6529;50.566;9.774;2022-11-25T09:11:43;7.70;99.90
12926;DHT22;6529;50.566;9.774;2022-11-25T09:14:09;7.70;99.90
12926;DHT22;6529;50.566;9.774;2022-11-25T09:16:34;7.60;99.90
12926;DHT22;6529;50.566;9.774;2022-11-25T09:19:00;7.60;99.90
12926;DHT22;6529;50.566;9.774;2022-11-25T09:21:26;7.60;99.90
12926;DHT22;6529;50.566;9.774;2022-11-25T09:23:52;7.50;99.90
12926;DHT22;6529;50.566;9.774;2022-11-25T09:26:24;7.50;99.90
12926;DHT22;6529;50.566;9.774;2022-11-25T09:28:50;7.60;99.90
12926;DHT22;6529;50.566;9.774;2022-11-25T09:31:16;7.50;99.90
12926;DHT22;6529;50.566;9.774;2022-11-25T09:33:42;7.60;99.90
12926;DHT22;6529;50.566;9.774;2022-11-25T09:36:08;7.70;99.90
12926;DHT22;6529;50.566;9.774;2022-11-25T09:38:35;7.70;99.90
12926;DHT22;6529;50.566;9.774;2022-11-25T09:41:09;7.80;99.90
12926;DHT22;6529;50.566;9.774;2022-11-25T09:44:02;7.80;99.90
12926;DHT22;6529;50.566;9.774;2022-11-25T09:47:16;7.80;99.90
12926;DHT22;6529;50.566;9.774;2022-11-25T09:49:54;7.70;99.90
12926;DHT22;6529;50.566;9.774;2022-11-25T09:53:15;7.70;99.90
12926;DHT22;6529;50.566;9.774;2022-11-25T09:55:46;7.60;99.90
12926;DHT22;6529;50.566;9.774;2022-11-25T10:00:54;7.50;99.90
12926;DHT22;6529;50.566;9.774;2022-11-25T10:03:26;7.50;99.90
12926;DHT22;6529;50.566;9.774;2022-11-25T10:06:04;7.40;99.90
12926;DHT22;6529;50.566;9.774;2022-11-25T10:08:52;7.40;99.90
12926;DHT22;6529;50.566;9.774;2022-11-25T10:13:55;7.40;99.90
12926;DHT22;6529;50.566;9.774;2022-11-25T10:16:54;7.30;99.90
12926;DHT22;6529;50.566;9.774;2022-11-25T10:22:31;7.30;99.90
12926;DHT22;6529;50.566;9.774;2022-11-25T10:25:05;7.20;99.90
12926;DHT22;6529;50.566;9.774;2022-11-25T10:27:43;7.20;99.90
12926;DHT22;6529;50.566;9.774;2022-11-25T10:31:05;7.20;99.90
12926;DHT22;6529;50.566;9.774;2022-11-25T10:33:37;7.10;99.90
12926;DHT22;6529;50.566;9.774;2022-11-25T10:36:16;7.10;99.90
12926;DHT22;6529;50.566;9.774;2022-11-25T10:41:16;7.00;99.90
12926;DHT22;6529;50.566;9.774;2022-11-25T10:43:42;7.00;99.90
12926;DHT22;6529;50.566;9.774;2022-11-25T10:49:00;6.90;99.90
12926;DHT22;6529;50.566;9.774;2022-11-25T10:51:46;6.80;99.90
12926;DHT22;6529;50.566;9.774;2022-11-25T10:56:53;6.80;99.90
12926;DHT22;6529;50.566;9.774;2022-11-25T11:02:05;6.70;99.90
12926;DHT22;6529;50.566;9.774;2022-11-25T11:04:59;6.60;99.90
12926;DHT22;6529;50.566;9.774;2022-11-25T11:07:32;6.70;99.90
12926;DHT22;6529;50.566;9.774;2022-11-25T11:10:18;6.60;99.90
12926;DHT22;6529;50.566;9.774;2022-11-25T11:15:28;6.60;99.90
12926;DHT22;6529;50.566;9.774;2022-11-25T11:17:55;6.60;99.90
12926;DHT22;6529;50.566;9.774;2022-11-25T11:20:28;6.60;99.90
12926;DHT22;6529;50.566;9.774;2022-11-25T11:23:09;6.60;99.90
12926;DHT22;6529;50.566;9.774;2022-11-25T11:25:37;6.60;99.90
12926;DHT22;6529;50.566;9.774;2022-11-25T11:50:02;6.70;99.90
12926;DHT22;6529;50.566;9.774;2022-11-25T11:52:54;6.70;99.90
12926;DHT22;6529;50.566;9.774;2022-11-25T12:00:25;6.80;99.90
12926;DHT22;6529;50.566;9.774;2022-11-25T12:03:02;6.80;99.90
12926;DHT22;6529;50.566;9.774;2022-11-25T12:05:33;6.80;99.90
12926;DHT22;6529;50.566;9.774;2022-11-25T12:24:35;6.70;99.90
12926;DHT22;6529;50.566;9.774;2022-11-25T12:27:28;6.70;99.90
12926;DHT22;6529;50.566;9.774;2022-11-25T12:33:09;6.70;99.90
12926;DHT22;6529;50.566;9.774;2022-11-25T12:36:01;6.70;99.90
12926;DHT22;6529;50.566;9.774;2022-11-25T12:41:42;6.60;99.90
12926;DHT22;6529;50.566;9.774;2022-11-25T12:46:59;6.60;99.90
12926;DHT22;6529;50.566;9.774;2022-11-25T12:49:26;6.60;99.90
12926;DHT22;6529;50.566;9.774;2022-11-25T13:16:22;6.50;99.90
12926;DHT22;6529;50.566;9.774;2022-11-25T13:18:49;6.50;99.90
12926;DHT22;6529;50.566;9.774;2022-11-25T13:21:16;6.50;99.90
12926;DHT22;6529;50.566;9.774;2022-11-25T13:23:49;6.50;99.90
12926;DHT22;6529;50.566;9.774;2022-11-25T13:26:45;6.40;99.90
12926;DHT22;6529;50.566;9.774;2022-11-25T13:34:28;6.40;99.90
12926;DHT22;6529;50.566;9.774;2022-11-25T13:36:55;6.40;99.90
12926;DHT22;6529;50.566;9.774;2022-11-25T13:39:29;6.40;99.90
12926;DHT22;6529;50.566;9.774;2022-11-25T13:42:13;6.40;99.90
12926;DHT22;6529;50.566;9.774;2022-11-25T13:44:57;6.40;99.90
12926;DHT22;6529;50.566;9.774;2022-11-25T13:47:27;6.40;99.90
12926;DHT22;6529;50.566;9.774;2022-11-25T13:49:59;6.40;99.90
12926;DHT22;6529;50.566;9.774;2022-11-25T13:52:32;6.40;99.90
12926;DHT22;6529;50.566;9.774;2022-11-25T13:54:59;6.40;99.90
12926;DHT22;6529;50.566;9.774;2022-11-25T13:57:29;6.40;99.90
12926;DHT22;6529;50.566;9.774;2022-11-25T14:18:46;6.50;99.90
12926;DHT22;6529;50.566;9.774;2022-11-25T14:26:45;6.60;99.90
12926;DHT22;6529;50.566;9.774;2022-11-25T14:34:46;6.60;99.90
12926;DHT22;6529;50.566;9.774;2022-11-25T14:37:13;6.60;99.90
12926;DHT22;6529;50.566;9.774;2022-11-25T14:40:06;6.60;99.90
12926;DHT22;6529;50.566;9.774;2022-11-25T14:42:38;6.60;99.90
12926;DHT22;6529;50.566;9.774;2022-11-25T14:45:20;6.50;99.90
12926;DHT22;6529;50.566;9.774;2022-11-25T14:47:46;6.50;99.90
12926;DHT22;6529;50.566;9.774;2022-11-25T14:50:13;6.50;99.90
12926;DHT22;6529;50.566;9.774;2022-11-25T14:52:39;6.50;99.90
12926;DHT22;6529;50.566;9.774;2022-11-25T14:55:08;6.50;99.90
12926;DHT22;6529;50.566;9.774;2022-11-25T14:57:39;6.50;99.90
12926;DHT22;6529;50.566;9.774;2022-11-25T15:00:10;6.50;99.90
12926;DHT22;6529;50.566;9.774;2022-11-25T15:02:39;6.60;99.90
12926;DHT22;6529;50.566;9.774;2022-11-25T15:05:15;6.60;99.90
12926;DHT22;6529;50.566;9.774;2022-11-25T15:07:43;6.60;99.90
12926;DHT22;6529;50.566;9.774;2022-11-25T15:10:31;6.60;99.90
12926;DHT22;6529;50.566;9.774;2022-11-25T15:12:58;6.60;99.90
12926;DHT22;6529;50.566;9.774;2022-11-25T15:15:26;6.60;99.90
12926;DHT22;6529;50.566;9.774;2022-11-25T15:17:52;6.50;99.90
12926;DHT22;6529;50.566;9.774;2022-11-25T15:20:19;6.50;99.90
12926;DHT22;6529;50.566;9.774;2022-11-25T15:22:47;6.50;99.90
12926;DHT22;6529;50.566;9.774;2022-11-25T15:25:14;6.50;99.90
12926;DHT22;6529;50.566;9.774;2022-11-25T15:27:45;6.50;99.90
12926;DHT22;6529;50.566;9.774;2022-11-25T15:30:25;6.50;99.90
12926;DHT22;6529;50.566;9.774;2022-11-25T15:32:51;6.50;99.90
12926;DHT22;6529;50.566;9.774;2022-11-25T15:35:21;6.50;99.90
12926;DHT22;6529;50.566;9.774;2022-11-25T15:37:48;6.50;99.90
12926;DHT22;6529;50.566;9.774;2022-11-25T15:43:02;6.60;99.90
12926;DHT22;6529;50.566;9.774;2022-11-25T15:45:43;6.50;99.90
12926;DHT22;6529;50.566;9.774;2022-11-25T15:48:40;6.50;99.90
12926;DHT22;6529;50.566;9.774;2022-11-25T15:53:54;6.40;99.90
12926;DHT22;6529;50.566;9.774;2022-11-25T15:56:24;6.40;99.90
12926;DHT22;6529;50.566;9.774;2022-11-25T15:58:50;6.40;99.90
12926;DHT22;6529;50.566;9.774;2022-11-25T16:03:46;6.40;99.90
12926;DHT22;6529;50.566;9.774;2022-11-25T16:06:23;6.40;99.90
12926;DHT22;6529;50.566;9.774;2022-11-25T16:08:55;6.40;99.90
12926;DHT22;6529;50.566;9.774;2022-11-25T16:11:21;6.40;99.90
12926;DHT22;6529;50.566;9.774;2022-11-25T16:13:52;6.40;99.90
12926;DHT22;6529;50.566;9.774;2022-11-25T16:16:26;6.40;99.90
12926;DHT22;6529;50.566;9.774;2022-11-25T16:21:25;6.40;99.90
12926;DHT22;6529;50.566;9.774;2022-11-25T16:29:36;6.40;99.90
12926;DHT22;6529;50.566;9.774;2022-11-25T16:32:18;6.30;99.90
12926;DHT22;6529;50.566;9.774;2022-11-25T16:34:44;6.40;99.90
12926;DHT22;6529;50.566;9.774;2022-11-25T16:37:10;6.30;99.90
12926;DHT22;6529;50.566;9.774;2022-11-25T16:39:36;6.30;99.90
12926;DHT22;6529;50.566;9.774;2022-11-25T16:42:05;6.30;99.90
12926;DHT22;6529;50.566;9.774;2022-11-25T16:44:32;6.30;99.90
12926;DHT22;6529;50.566;9.774;2022-11-25T16:46:59;6.30;99.90
12926;DHT22;6529;50.566;9.774;2022-11-25T16:49:26;6.30;99.90
12926;DHT22;6529;50.566;9.774;2022-11-25T16:51:53;6.30;99.90
12926;DHT22;6529;50.566;9.774;2022-11-25T16:54:20;6.30;99.90
12926;DHT22;6529;50.566;9.774;2022-11-25T16:56:49;6.30;99.90
12926;DHT22;6529;50.566;9.774;2022-11-25T16:59:18;6.30;99.90
12926;DHT22;6529;50.566;9.774;2022-11-25T17:01:44;6.20;99.90
12926;DHT22;6529;50.566;9.774;2022-11-25T17:04:11;6.20;99.90
12926;DHT22;6529;50.566;9.774;2022-11-25T17:06:37;6.20;99.90
12926;DHT22;6529;50.566;9.774;2022-11-25T17:09:03;6.20;99.90
12926;DHT22;6529;50.566;9.774;2022-11-25T17:11:41;6.20;99.90
12926;DHT22;6529;50.566;9.774;2022-11-25T17:14:21;6.20;99.90
12926;DHT22;6529;50.566;9.774;2022-11-25T17:16:48;6.20;99.90
12926;DHT22;6529;50.566;9.774;2022-11-25T17:19:14;6.20;99.90
12926;DHT22;6529;50.566;9.774;2022-11-25T17:21:41;6.20;99.90
12926;DHT22;6529;50.566;9.774;2022-11-25T17:24:14;6.20;99.90
12926;DHT22;6529;50.566;9.774;2022-11-25T17:26:42;6.20;99.90
12926;DHT22;6529;50.566;9.774;2022-11-25T17:29:15;6.20;99.90
12926;DHT22;6529;50.566;9.774;2022-11-25T17:31:41;6.20;99.90
12926;DHT22;6529;50.566;9.774;2022-11-25T17:34:15;6.20;99.90
12926;DHT22;6529;50.566;9.774;2022-11-25T17:36:42;6.10;99.90
12926;DHT22;6529;50.566;9.774;2022-11-25T17:39:10;6.10;99.90
12926;DHT22;6529;50.566;9.774;2022-11-25T17:41:40;6.10;99.90
12926;DHT22;6529;50.566;9.774;2022-11-25T17:44:12;6.10;99.90
12926;DHT22;6529;50.566;9.774;2022-11-25T17:46:39;6.10;99.90
12926;DHT22;6529;50.566;9.774;2022-11-25T17:49:13;6.10;99.90
12926;DHT22;6529;50.566;9.774;2022-11-25T17:51:38;6.10;99.90
12926;DHT22;6529;50.566;9.774;2022-11-25T17:54:04;6.10;99.90
12926;DHT22;6529;50.566;9.774;2022-11-25T17:56:29;6.20;99.90
12926;DHT22;6529;50.566;9.774;2022-11-25T17:58:59;6.20;99.90
12926;DHT22;6529;50.566;9.774;2022-11-25T18:01:25;6.20;99.90
12926;DHT22;6529;50.566;9.774;2022-11-25T18:03:51;6.20;99.90
12926;DHT22;6529;50.566;9.774;2022-11-25T18:06:18;6.20;99.90
12926;DHT22;6529;50.566;9.774;2022-11-25T18:08:44;6.20;99.90
12926;DHT22;6529;50.566;9.774;2022-11-25T18:11:14;6.20;99.90
12926;DHT22;6529;50.566;9.774;2022-11-25T18:13:42;6.20;99.90
12926;DHT22;6529;50.566;9.774;2022-11-25T18:16:09;6.20;99.90
12926;DHT22;6529;50.566;9.774;2022-11-25T18:18:35;6.10;99.90
12926;DHT22;6529;50.566;9.774;2022-11-25T18:21:01;6.10;99.90
12926;DHT22;6529;50.566;9.774;2022-11-25T18:23:27;6.00;99.90
12926;DHT22;6529;50.566;9.774;2022-11-25T18:25:54;6.00;99.90
12926;DHT22;6529;50.566;9.774;2022-11-25T18:28:22;6.00;99.90
12926;DHT22;6529;50.566;9.774;2022-11-25T18:30:49;6.00;99.90
12926;DHT22;6529;50.566;9.774;2022-11-25T18:33:17;6.00;99.90
12926;DHT22;6529;50.566;9.774;2022-11-25T18:35:43;5.90;99.90
12926;DHT22;6529;50.566;9.774;2022-11-25T18:38:10;5.90;99.90
12926;DHT22;6529;50.566;9.774;2022-11-25T18:40:37;5.90;99.90
12926;DHT22;6529;50.566;9.774;2022-11-25T18:43:05;5.90;99.90
12926;DHT22;6529;50.566;9.774;2022-11-25T18:45:34;5.90;99.90
12926;DHT22;6529;50.566;9.774;2022-11-25T18:48:13;5.90;99.90
12926;DHT22;6529;50.566;9.774;2022-11-25T18:50:40;5.90;99.90
12926;DHT22;6529;50.566;9.774;2022-11-25T18:53:06;5.90;99.90